Hlavní strana
METAR-TAF:

METAR-TAF

Letiště :

Turaif, Saúdská Arábie

zeměpisná šířka: 31-41N, zeměpisná délka: 038-44E, výška: 813 m

Aktuální stav počasí

Zpráva byla vytvořena před 59 minutami, v 11:00 UTC
Západojihozápadní vítr 12 kt
Teplota 36°C
Vlhkost vzduchu 15%
Tlak 1015 hPa
Viditelnost 10 km a více
Žádná oblačnost pod 1500 m, nevyskytují se cumulonimby.

METAR: OETR 261100Z 25012KT CAVOK 36/05 Q1015 NOSIG

Čas: 14:59 (11:59 UTC)

Předpověď počasí

Zpráva byla vytvořena před 59 minutami, v 11:00 UTC
Předpověď platná od 26 v 12 UTC do 27 v 18 UTC
Západoseverozápadní vítr 14 kt
Viditelnost 10 km a více
Žádná oblačnost pod 1500 m, nevyskytují se cumulonimby.
Změna
od 26 v 18 UTC do 26 v 20 UTC
Severoseverovýchodní vítr 6 kt

TAF: OETR 261100Z 2612/2718 30014KT CAVOK BECMG 2618/2620 02006KT

Stav a předpovědi počasí z více než 4 000 letišť (zprávy METAR a TAF).

Červené a žluté tečky na mapě představují dostupné meteorologické stanice.

Když kurzor umístíte na tečku, zobrazí se název stanice.

Pak kliknutím zobrazíte stav a předpověď počasí.

Chcete-li změnit mapu, kliknutím na zelené tlačítko se znaménkem +mapu přiblížíte, kliknutím na zelené tlačítko se znaménkem – mapu oddálíte a kliknutím na zelené šipky přejdete na sousední mapy.


METAR-TAF: